LAN809 SCEL-YSSY
Flight info
| Callsign | LAN809 |
|---|---|
| Flight time | N/A |
| Altitude | 29000 |
| Route | ANGOD UQ803 SUMKO/N0488F350 UT115 VLD DCT 4107S07341W 4334S07442W 4410S07500W 4700S07630W 4818S07715W 5139S07928W 5219S08000W 5531S08250W 5807S08556W 6024S09000W/N0478F360 6205S09336W 6400S09926W 6410S10000W 6627S10913W 6636S11000W 6713S11343W 6757S12000W 6806S12144W/N0485F380 6828S13100W 6826S13623W 6810S14031W 6642S15117W/N0480F400 6334S16222W 60S170W 5831S17336W 5451S17823E 5123S17225E 4908S16901E 4543S16410E 4447S16300E 4234S16024E 4005S15751E DCT TONIM DCT RIKNI N774 MARLN |
| Aircraft | B77W/H-SDE1E2E3FGHIJ2J3J4J5M1RWXY/LB1D1 |
Departure
| Time | N/A |
|---|---|
| Airport | Comodoro Arturo Merino Benítez International Airport (SCEL) |
Arrival
| Time | 2026-05-07 00:12 |
|---|---|
| Airport | Sydney Kingsford Smith International Airport (YSSY) |
| Time | Latitude | Longitude | Altitude | Speed | Heading |
|---|---|---|---|---|---|
| 2026-05-06 22:21 | -42.69537 | 160.54378 | 35825 ft | 430 kts | 321° |
| 2026-05-06 22:21 | -42.67228 | 160.51786 | 35837 ft | 430 kts | 321° |
| 2026-05-06 22:22 | -42.62609 | 160.46610 | 35824 ft | 431 kts | 321° |
| 2026-05-06 22:22 | -42.57986 | 160.41438 | 35822 ft | 430 kts | 321° |
| 2026-05-06 22:23 | -42.53332 | 160.36320 | 35821 ft | 430 kts | 321° |
| 2026-05-06 22:23 | -42.48638 | 160.31289 | 35810 ft | 430 kts | 322° |
| 2026-05-06 22:24 | -42.43940 | 160.26265 | 35822 ft | 430 kts | 322° |
| 2026-05-06 22:24 | -42.39245 | 160.21244 | 35822 ft | 430 kts | 322° |
| 2026-05-06 22:25 | -42.34546 | 160.16216 | 35835 ft | 431 kts | 321° |
| 2026-05-06 22:25 | -42.29877 | 160.11230 | 35823 ft | 431 kts | 321° |
| 2026-05-06 22:26 | -42.25179 | 160.06216 | 35807 ft | 430 kts | 321° |
| 2026-05-06 22:26 | -42.20479 | 160.01215 | 35822 ft | 430 kts | 321° |
| 2026-05-06 22:27 | -42.15787 | 159.96234 | 35827 ft | 430 kts | 321° |
| 2026-05-06 22:27 | -42.11083 | 159.91248 | 35825 ft | 430 kts | 322° |
| 2026-05-06 22:28 | -42.06386 | 159.86282 | 35834 ft | 430 kts | 322° |
| 2026-05-06 22:28 | -42.01683 | 159.81315 | 35816 ft | 430 kts | 322° |
| 2026-05-06 22:29 | -41.96987 | 159.76367 | 35821 ft | 429 kts | 322° |
| 2026-05-06 22:29 | -41.92314 | 159.71452 | 35826 ft | 430 kts | 322° |
| 2026-05-06 22:30 | -41.87607 | 159.66511 | 35830 ft | 430 kts | 322° |
| 2026-05-06 22:30 | -41.82894 | 159.61573 | 35830 ft | 430 kts | 322° |
| 2026-05-06 22:31 | -41.78180 | 159.56641 | 35831 ft | 430 kts | 322° |
| 2026-05-06 22:31 | -41.73459 | 159.51716 | 35842 ft | 430 kts | 322° |
| 2026-05-06 22:32 | -41.68740 | 159.46801 | 35834 ft | 430 kts | 322° |
| 2026-05-06 22:32 | -41.64018 | 159.41891 | 35833 ft | 430 kts | 322° |
| 2026-05-06 22:33 | -41.59299 | 159.36993 | 35833 ft | 429 kts | 322° |
| 2026-05-06 22:33 | -41.54581 | 159.32107 | 35833 ft | 429 kts | 322° |
| 2026-05-06 22:34 | -41.49859 | 159.27225 | 35825 ft | 428 kts | 322° |
| 2026-05-06 22:34 | -41.45146 | 159.22363 | 35833 ft | 428 kts | 322° |
| 2026-05-06 22:35 | -41.40432 | 159.17508 | 35853 ft | 429 kts | 322° |
| 2026-05-06 22:35 | -41.35705 | 159.12648 | 35843 ft | 431 kts | 322° |
| 2026-05-06 22:36 | -41.30910 | 159.07728 | 35845 ft | 439 kts | 322° |
| 2026-05-06 22:36 | -41.26099 | 159.02801 | 35823 ft | 439 kts | 322° |
| 2026-05-06 22:37 | -41.21260 | 158.97853 | 35827 ft | 439 kts | 322° |
| 2026-05-06 22:37 | -41.16426 | 158.92923 | 35835 ft | 438 kts | 322° |
| 2026-05-06 22:38 | -41.11589 | 158.88000 | 35836 ft | 437 kts | 322° |
| 2026-05-06 22:38 | -41.06765 | 158.83097 | 35845 ft | 437 kts | 322° |
| 2026-05-06 22:39 | -41.01946 | 158.78211 | 35850 ft | 435 kts | 322° |
| 2026-05-06 22:39 | -40.97150 | 158.73355 | 35831 ft | 433 kts | 322° |
| 2026-05-06 22:40 | -40.92378 | 158.68532 | 35831 ft | 431 kts | 322° |
| 2026-05-06 22:40 | -40.87626 | 158.63739 | 35831 ft | 429 kts | 322° |
| 2026-05-06 22:41 | -40.80516 | 158.56582 | 35832 ft | 428 kts | 322° |
| 2026-05-06 22:42 | -40.75805 | 158.51852 | 35839 ft | 428 kts | 322° |
| 2026-05-06 22:42 | -40.71055 | 158.47092 | 35833 ft | 429 kts | 322° |
| 2026-05-06 22:43 | -40.66292 | 158.42329 | 35829 ft | 430 kts | 322° |
| 2026-05-06 22:43 | -40.61521 | 158.37565 | 35835 ft | 431 kts | 322° |
| 2026-05-06 22:44 | -40.56744 | 158.32804 | 35835 ft | 431 kts | 322° |
| 2026-05-06 22:44 | -40.51957 | 158.28042 | 35825 ft | 431 kts | 322° |
| 2026-05-06 22:45 | -40.47175 | 158.23293 | 35834 ft | 431 kts | 322° |
| 2026-05-06 22:45 | -40.42388 | 158.18547 | 35848 ft | 431 kts | 322° |
| 2026-05-06 22:46 | -40.37606 | 158.13816 | 35838 ft | 430 kts | 322° |
| 2026-05-06 22:46 | -40.32833 | 158.09103 | 35830 ft | 429 kts | 322° |
| 2026-05-06 22:47 | -40.28076 | 158.04412 | 35831 ft | 427 kts | 323° |
| 2026-05-06 22:47 | -40.23333 | 157.99744 | 35826 ft | 426 kts | 322° |
| 2026-05-06 22:48 | -40.18597 | 157.95092 | 35833 ft | 426 kts | 322° |
| 2026-05-06 22:48 | -40.13889 | 157.90474 | 35834 ft | 426 kts | 322° |
| 2026-05-06 22:49 | -40.09144 | 157.85828 | 35863 ft | 426 kts | 322° |
| 2026-05-06 22:49 | -40.04347 | 157.81267 | 35839 ft | 426 kts | 324° |
| 2026-05-06 22:50 | -39.99499 | 157.76817 | 35818 ft | 426 kts | 324° |
| 2026-05-06 22:50 | -39.94655 | 157.72376 | 35831 ft | 425 kts | 324° |
| 2026-05-06 22:51 | -39.89821 | 157.67935 | 35840 ft | 425 kts | 324° |
| 2026-05-06 22:51 | -39.84995 | 157.63497 | 35831 ft | 424 kts | 324° |
| 2026-05-06 22:52 | -39.80175 | 157.59069 | 35835 ft | 424 kts | 324° |
| 2026-05-06 22:52 | -39.75352 | 157.54644 | 35835 ft | 424 kts | 324° |
| 2026-05-06 22:53 | -39.70530 | 157.50230 | 35834 ft | 424 kts | 323° |
| 2026-05-06 22:53 | -39.65746 | 157.45859 | 35831 ft | 423 kts | 323° |
| 2026-05-06 22:54 | -39.60943 | 157.41479 | 35834 ft | 422 kts | 324° |
| 2026-05-06 22:54 | -39.56146 | 157.37112 | 35833 ft | 421 kts | 324° |
| 2026-05-06 22:55 | -39.51356 | 157.32758 | 35832 ft | 421 kts | 324° |
| 2026-05-06 22:55 | -39.46562 | 157.28407 | 35828 ft | 420 kts | 323° |
| 2026-05-06 22:56 | -39.41775 | 157.24070 | 35827 ft | 420 kts | 324° |
| 2026-05-06 22:56 | -39.36990 | 157.19743 | 35840 ft | 420 kts | 323° |
| 2026-05-06 22:57 | -39.32208 | 157.15428 | 35832 ft | 419 kts | 323° |
| 2026-05-06 22:57 | -39.27435 | 157.11124 | 35828 ft | 418 kts | 323° |
| 2026-05-06 22:58 | -39.22670 | 157.06835 | 35812 ft | 417 kts | 323° |
| 2026-05-06 22:58 | -39.17945 | 157.02593 | 35829 ft | 416 kts | 323° |
| 2026-05-06 22:59 | -39.13195 | 156.98332 | 35829 ft | 416 kts | 323° |
| 2026-05-06 22:59 | -39.08436 | 156.94072 | 35827 ft | 416 kts | 323° |
| 2026-05-06 23:00 | -39.03678 | 156.89820 | 35829 ft | 416 kts | 323° |
| 2026-05-06 23:00 | -38.98915 | 156.85571 | 35831 ft | 416 kts | 323° |
| 2026-05-06 23:01 | -38.94155 | 156.81332 | 35825 ft | 416 kts | 323° |
| 2026-05-06 23:01 | -38.89405 | 156.77106 | 35827 ft | 415 kts | 323° |
| 2026-05-06 23:02 | -38.84654 | 156.72887 | 35825 ft | 415 kts | 323° |
| 2026-05-06 23:02 | -38.79936 | 156.68705 | 35825 ft | 415 kts | 323° |
| 2026-05-06 23:03 | -38.75184 | 156.64500 | 35827 ft | 415 kts | 323° |
| 2026-05-06 23:03 | -38.70433 | 156.60303 | 35794 ft | 415 kts | 323° |
| 2026-05-06 23:04 | -38.65687 | 156.56117 | 35835 ft | 414 kts | 323° |
| 2026-05-06 23:04 | -38.60940 | 156.51940 | 35823 ft | 414 kts | 323° |
| 2026-05-06 23:05 | -38.56189 | 156.47760 | 35819 ft | 414 kts | 323° |
| 2026-05-06 23:05 | -38.51449 | 156.43600 | 35818 ft | 414 kts | 323° |
| 2026-05-06 23:06 | -38.46707 | 156.39445 | 35819 ft | 413 kts | 323° |
| 2026-05-06 23:06 | -38.41962 | 156.35296 | 35807 ft | 413 kts | 323° |
| 2026-05-06 23:07 | -38.37219 | 156.31151 | 35809 ft | 413 kts | 323° |
| 2026-05-06 23:07 | -38.33277 | 156.27714 | 35813 ft | 413 kts | 323° |
| 2026-05-06 23:08 | -38.28532 | 156.23582 | 35831 ft | 413 kts | 323° |
| 2026-05-06 23:08 | -38.23783 | 156.19453 | 35819 ft | 413 kts | 323° |
| 2026-05-06 23:09 | -38.19042 | 156.15338 | 35811 ft | 413 kts | 323° |
| 2026-05-06 23:09 | -38.14300 | 156.11228 | 35811 ft | 412 kts | 323° |
| 2026-05-06 23:10 | -38.09565 | 156.07130 | 35813 ft | 411 kts | 323° |
| 2026-05-06 23:10 | -38.04866 | 156.03073 | 35811 ft | 411 kts | 323° |
| 2026-05-06 23:11 | -38.00138 | 155.98995 | 35811 ft | 411 kts | 323° |
| 2026-05-06 23:11 | -37.95407 | 155.94921 | 35811 ft | 411 kts | 323° |
| 2026-05-06 23:12 | -37.90678 | 155.90855 | 35795 ft | 411 kts | 323° |
| 2026-05-06 23:12 | -37.85946 | 155.86793 | 35808 ft | 411 kts | 323° |
| 2026-05-06 23:13 | -37.81201 | 155.82725 | 35815 ft | 412 kts | 323° |
| 2026-05-06 23:13 | -37.76456 | 155.78664 | 35816 ft | 412 kts | 323° |
| 2026-05-06 23:14 | -37.71709 | 155.74609 | 35814 ft | 412 kts | 323° |
| 2026-05-06 23:14 | -37.66948 | 155.70549 | 35811 ft | 412 kts | 323° |
| 2026-05-06 23:15 | -37.62191 | 155.66498 | 35812 ft | 412 kts | 323° |
| 2026-05-06 23:15 | -37.57436 | 155.62455 | 35824 ft | 412 kts | 323° |
| 2026-05-06 23:16 | -37.52673 | 155.58410 | 35826 ft | 413 kts | 323° |
| 2026-05-06 23:16 | -37.47907 | 155.54370 | 35817 ft | 413 kts | 323° |
| 2026-05-06 23:17 | -37.43130 | 155.50327 | 35824 ft | 414 kts | 324° |
| 2026-05-06 23:17 | -37.38358 | 155.46293 | 35809 ft | 413 kts | 324° |
| 2026-05-06 23:18 | -37.33584 | 155.42266 | 35812 ft | 413 kts | 323° |
| 2026-05-06 23:18 | -37.28850 | 155.38277 | 35826 ft | 413 kts | 323° |
| 2026-05-06 23:19 | -37.24070 | 155.34257 | 35831 ft | 413 kts | 323° |
| 2026-05-06 23:19 | -37.19300 | 155.30253 | 35829 ft | 412 kts | 323° |
| 2026-05-06 23:20 | -37.14530 | 155.26253 | 35837 ft | 412 kts | 323° |
| 2026-05-06 23:20 | -37.09759 | 155.22257 | 35818 ft | 412 kts | 323° |
| 2026-05-06 23:21 | -37.04996 | 155.18277 | 35821 ft | 412 kts | 323° |
| 2026-05-06 23:21 | -37.00226 | 155.14296 | 35829 ft | 412 kts | 323° |
| 2026-05-06 23:22 | -36.95451 | 155.10319 | 35826 ft | 412 kts | 323° |
| 2026-05-06 23:22 | -36.90680 | 155.06346 | 35833 ft | 412 kts | 323° |
| 2026-05-06 23:23 | -36.85933 | 155.02403 | 35831 ft | 412 kts | 323° |
| 2026-05-06 23:23 | -36.81160 | 154.98444 | 35843 ft | 412 kts | 323° |
| 2026-05-06 23:24 | -36.76378 | 154.94482 | 35834 ft | 412 kts | 323° |
| 2026-05-06 23:24 | -36.71599 | 154.90531 | 35840 ft | 412 kts | 323° |
| 2026-05-06 23:25 | -36.66818 | 154.86582 | 35837 ft | 412 kts | 323° |
| 2026-05-06 23:25 | -36.62038 | 154.82641 | 35843 ft | 412 kts | 323° |
| 2026-05-06 23:26 | -36.57255 | 154.78703 | 35845 ft | 412 kts | 323° |
| 2026-05-06 23:26 | -36.52472 | 154.74770 | 35838 ft | 412 kts | 323° |
| 2026-05-06 23:27 | -36.47692 | 154.70847 | 35847 ft | 412 kts | 323° |
| 2026-05-06 23:27 | -36.42911 | 154.66928 | 35871 ft | 412 kts | 323° |
| 2026-05-06 23:28 | -36.38124 | 154.63011 | 35860 ft | 412 kts | 323° |
| 2026-05-06 23:28 | -36.33338 | 154.59100 | 35851 ft | 412 kts | 323° |
| 2026-05-06 23:29 | -36.28551 | 154.55196 | 35826 ft | 411 kts | 323° |
| 2026-05-06 23:29 | -36.23781 | 154.51307 | 35848 ft | 410 kts | 323° |
| 2026-05-06 23:30 | -36.19041 | 154.47452 | 35860 ft | 410 kts | 323° |
| 2026-05-06 23:30 | -36.14244 | 154.43554 | 35861 ft | 410 kts | 323° |
| 2026-05-06 23:31 | -36.09503 | 154.39706 | 35860 ft | 410 kts | 323° |
| 2026-05-06 23:31 | -36.04690 | 154.35809 | 35892 ft | 410 kts | 323° |
| 2026-05-06 23:32 | -36.00103 | 154.31723 | 35857 ft | 409 kts | 320° |
| 2026-05-06 23:32 | -35.95585 | 154.27464 | 35862 ft | 408 kts | 320° |
| 2026-05-06 23:33 | -35.91066 | 154.23210 | 35876 ft | 408 kts | 320° |
| 2026-05-06 23:33 | -35.86539 | 154.18965 | 35871 ft | 409 kts | 320° |
| 2026-05-06 23:34 | -35.82008 | 154.14726 | 35875 ft | 409 kts | 320° |
| 2026-05-06 23:34 | -35.77478 | 154.10494 | 35878 ft | 409 kts | 320° |
| 2026-05-06 23:35 | -35.72945 | 154.06268 | 35874 ft | 409 kts | 320° |
| 2026-05-06 23:35 | -35.68412 | 154.02043 | 35877 ft | 409 kts | 319° |
| 2026-05-06 23:36 | -35.63870 | 153.97818 | 35883 ft | 409 kts | 319° |
| 2026-05-06 23:36 | -35.59333 | 153.93602 | 35885 ft | 409 kts | 319° |
| 2026-05-06 23:37 | -35.54794 | 153.89394 | 35882 ft | 409 kts | 320° |
| 2026-05-06 23:37 | -35.50251 | 153.85188 | 35890 ft | 409 kts | 320° |
| 2026-05-06 23:38 | -35.45714 | 153.80994 | 35896 ft | 408 kts | 320° |
| 2026-05-06 23:38 | -35.41175 | 153.76803 | 35890 ft | 408 kts | 320° |
| 2026-05-06 23:39 | -35.36633 | 153.72614 | 35913 ft | 408 kts | 319° |
| 2026-05-06 23:39 | -35.32099 | 153.68439 | 35903 ft | 408 kts | 319° |
| 2026-05-06 23:40 | -35.27559 | 153.64267 | 35899 ft | 408 kts | 319° |
| 2026-05-06 23:40 | -35.23030 | 153.60108 | 35904 ft | 408 kts | 319° |
| 2026-05-06 23:41 | -35.18487 | 153.55942 | 35905 ft | 408 kts | 319° |
| 2026-05-06 23:41 | -35.13982 | 153.51816 | 35892 ft | 407 kts | 319° |
| 2026-05-06 23:42 | -35.09448 | 153.47673 | 35908 ft | 407 kts | 319° |
| 2026-05-06 23:42 | -35.04948 | 153.43566 | 35800 ft | 400 kts | 319° |
| 2026-05-06 23:43 | -35.00492 | 153.39505 | 35912 ft | 403 kts | 319° |
| 2026-05-06 23:43 | -34.95949 | 153.35363 | 35924 ft | 411 kts | 319° |
| 2026-05-06 23:44 | -34.91369 | 153.31200 | 35927 ft | 411 kts | 319° |
| 2026-05-06 23:44 | -34.86786 | 153.27043 | 35928 ft | 410 kts | 319° |
| 2026-05-06 23:45 | -34.82219 | 153.22901 | 35931 ft | 409 kts | 319° |
| 2026-05-06 23:45 | -34.77657 | 153.18772 | 35936 ft | 408 kts | 319° |
| 2026-05-06 23:46 | -34.73097 | 153.14651 | 35939 ft | 408 kts | 319° |
| 2026-05-06 23:46 | -34.68540 | 153.10539 | 35951 ft | 408 kts | 319° |
| 2026-05-06 23:47 | -34.64350 | 153.05960 | 35963 ft | 403 kts | 310° |
| 2026-05-06 23:47 | -34.60784 | 153.00775 | 35959 ft | 401 kts | 305° |
| 2026-05-06 23:48 | -34.57498 | 152.95302 | 35945 ft | 401 kts | 304° |
| 2026-05-06 23:48 | -34.54224 | 152.89826 | 35921 ft | 401 kts | 304° |
| 2026-05-06 23:48 | -34.52605 | 152.87132 | 35664 ft | 404 kts | 304° |
| 2026-05-06 23:49 | -34.50928 | 152.84346 | 35017 ft | 407 kts | 305° |
| 2026-05-06 23:49 | -34.49265 | 152.81590 | 34398 ft | 402 kts | 305° |
| 2026-05-06 23:49 | -34.47632 | 152.78891 | 33967 ft | 392 kts | 305° |
| 2026-05-06 23:49 | -34.46026 | 152.76240 | 32982 ft | 392 kts | 306° |
| 2026-05-06 23:50 | -34.44417 | 152.73585 | 32288 ft | 388 kts | 306° |
| 2026-05-06 23:50 | -34.41262 | 152.68384 | 31000 ft | 379 kts | 306° |
| 2026-05-06 23:50 | -34.39709 | 152.65826 | 30399 ft | 375 kts | 307° |
| 2026-05-06 23:51 | -34.38171 | 152.63296 | 29747 ft | 371 kts | 307° |
| 2026-05-06 23:51 | -34.36646 | 152.60788 | 29055 ft | 368 kts | 307° |
| 2026-05-06 23:51 | -34.35138 | 152.58309 | 28446 ft | 364 kts | 307° |
| 2026-05-06 23:51 | -34.33646 | 152.55860 | 27843 ft | 360 kts | 307° |
| 2026-05-06 23:52 | -34.32168 | 152.53435 | 27233 ft | 356 kts | 307° |
| 2026-05-06 23:52 | -34.30703 | 152.51034 | 26687 ft | 353 kts | 306° |
| 2026-05-06 23:52 | -34.29249 | 152.48652 | 26105 ft | 351 kts | 306° |
| 2026-05-06 23:52 | -34.27805 | 152.46286 | 25526 ft | 348 kts | 306° |
| 2026-05-06 23:53 | -34.26370 | 152.43936 | 24990 ft | 346 kts | 306° |
| 2026-05-06 23:53 | -34.24947 | 152.41608 | 24428 ft | 344 kts | 306° |
| 2026-05-06 23:53 | -34.24004 | 152.40068 | 24060 ft | 343 kts | 306° |
| 2026-05-06 23:53 | -34.22586 | 152.37752 | 23511 ft | 342 kts | 306° |
| 2026-05-06 23:54 | -34.21174 | 152.35444 | 22883 ft | 341 kts | 306° |
| 2026-05-06 23:54 | -34.19314 | 152.32411 | 22137 ft | 338 kts | 306° |
| 2026-05-06 23:54 | -34.17920 | 152.30138 | 21589 ft | 335 kts | 306° |
| 2026-05-06 23:54 | -34.16540 | 152.27888 | 21073 ft | 333 kts | 306° |
| 2026-05-06 23:55 | -34.15609 | 152.26372 | 20689 ft | 332 kts | 306° |
| 2026-05-06 23:55 | -34.13799 | 152.23423 | 20033 ft | 329 kts | 306° |
| 2026-05-06 23:55 | -34.12880 | 152.21928 | 19690 ft | 328 kts | 305° |
| 2026-05-06 23:55 | -34.11082 | 152.19004 | 19023 ft | 327 kts | 305° |
| 2026-05-06 23:56 | -34.10182 | 152.17542 | 18695 ft | 326 kts | 305° |
| 2026-05-06 23:56 | -34.08830 | 152.15345 | 18138 ft | 327 kts | 305° |
| 2026-05-06 23:56 | -34.07478 | 152.13150 | 17593 ft | 325 kts | 305° |
| 2026-05-06 23:56 | -34.06128 | 152.10961 | 17063 ft | 324 kts | 305° |
| 2026-05-06 23:57 | -34.04808 | 152.08775 | 16505 ft | 318 kts | 301° |
| 2026-05-06 23:57 | -34.04035 | 152.06297 | 15941 ft | 319 kts | 282° |
| 2026-05-06 23:57 | -34.03836 | 152.03627 | 15461 ft | 321 kts | 274° |
| 2026-05-06 23:57 | -34.04030 | 152.00938 | 15004 ft | 323 kts | 264° |
| 2026-05-06 23:58 | -34.04464 | 151.98307 | 14645 ft | 318 kts | 263° |
| 2026-05-06 23:58 | -34.04932 | 151.95733 | 14200 ft | 308 kts | 262° |
| 2026-05-06 23:58 | -34.05394 | 151.93230 | 13304 ft | 305 kts | 262° |
| 2026-05-06 23:58 | -34.05848 | 151.90725 | 12253 ft | 307 kts | 262° |
| 2026-05-06 23:59 | -34.06300 | 151.88173 | 11621 ft | 312 kts | 262° |
| 2026-05-06 23:59 | -34.06749 | 151.85620 | 11156 ft | 311 kts | 263° |
| 2026-05-06 23:59 | -34.07193 | 151.83065 | 10728 ft | 309 kts | 263° |
| 2026-05-06 23:59 | -34.07625 | 151.80573 | 10606 ft | 298 kts | 263° |
| 2026-05-07 00:00 | -34.08041 | 151.78163 | 10450 ft | 288 kts | 264° |
| 2026-05-07 00:00 | -34.08442 | 151.75837 | 10318 ft | 278 kts | 264° |
| 2026-05-07 00:00 | -34.08827 | 151.73592 | 10205 ft | 268 kts | 264° |
| 2026-05-07 00:00 | -34.09196 | 151.71425 | 10088 ft | 259 kts | 264° |
| 2026-05-07 00:01 | -34.09551 | 151.69341 | 9967 ft | 250 kts | 265° |
| 2026-05-07 00:01 | -34.09898 | 151.67288 | 9619 ft | 249 kts | 264° |
| 2026-05-07 00:01 | -34.10241 | 151.65246 | 9289 ft | 248 kts | 265° |
| 2026-05-07 00:01 | -34.10584 | 151.63202 | 8941 ft | 247 kts | 264° |
| 2026-05-07 00:02 | -34.10925 | 151.61179 | 8628 ft | 245 kts | 263° |
| 2026-05-07 00:02 | -34.11262 | 151.59169 | 8290 ft | 245 kts | 262° |
| 2026-05-07 00:02 | -34.11601 | 151.57156 | 7957 ft | 244 kts | 262° |
| 2026-05-07 00:02 | -34.11939 | 151.55148 | 7633 ft | 243 kts | 262° |
| 2026-05-07 00:03 | -34.12275 | 151.53154 | 7328 ft | 242 kts | 262° |
| 2026-05-07 00:03 | -34.12607 | 151.51163 | 7002 ft | 242 kts | 261° |
| 2026-05-07 00:03 | -34.12940 | 151.49171 | 6669 ft | 242 kts | 261° |
| 2026-05-07 00:03 | -34.13275 | 151.47184 | 6343 ft | 241 kts | 260° |
| 2026-05-07 00:04 | -34.13608 | 151.45213 | 6075 ft | 237 kts | 260° |
| 2026-05-07 00:04 | -34.13934 | 151.43273 | 5716 ft | 237 kts | 260° |
| 2026-05-07 00:04 | -34.14259 | 151.41327 | 5387 ft | 236 kts | 260° |
| 2026-05-07 00:04 | -34.14582 | 151.39390 | 5069 ft | 235 kts | 259° |
| 2026-05-07 00:05 | -34.14902 | 151.37471 | 4755 ft | 233 kts | 259° |
| 2026-05-07 00:05 | -34.15215 | 151.35586 | 4611 ft | 224 kts | 259° |
| 2026-05-07 00:05 | -34.15518 | 151.33782 | 4515 ft | 214 kts | 259° |
| 2026-05-07 00:05 | -34.15803 | 151.32060 | 4441 ft | 203 kts | 259° |
| 2026-05-07 00:06 | -34.16073 | 151.30440 | 4379 ft | 192 kts | 259° |
| 2026-05-07 00:06 | -34.16326 | 151.28918 | 4233 ft | 178 kts | 259° |
| 2026-05-07 00:06 | -34.16559 | 151.27512 | 4059 ft | 162 kts | 259° |
| 2026-05-07 00:06 | -34.16778 | 151.26200 | 3868 ft | 157 kts | 261° |
| 2026-05-07 00:07 | -34.16646 | 151.24917 | 3677 ft | 163 kts | 296° |
| 2026-05-07 00:07 | -34.15719 | 151.24051 | 3573 ft | 176 kts | 324° |
| 2026-05-07 00:07 | -34.14588 | 151.23401 | 3484 ft | 185 kts | 327° |
| 2026-05-07 00:07 | -34.13341 | 151.22911 | 3376 ft | 192 kts | 338° |
| 2026-05-07 00:08 | -34.12004 | 151.22683 | 3220 ft | 195 kts | 343° |
| 2026-05-07 00:08 | -34.10687 | 151.22313 | 3078 ft | 194 kts | 337° |
| 2026-05-07 00:08 | -34.09395 | 151.21869 | 2945 ft | 193 kts | 336° |
| 2026-05-07 00:08 | -34.08104 | 151.21432 | 2725 ft | 188 kts | 336° |
| 2026-05-07 00:09 | -34.06897 | 151.21033 | 2648 ft | 172 kts | 336° |
| 2026-05-07 00:09 | -34.05759 | 151.20668 | 2336 ft | 168 kts | 334° |
| 2026-05-07 00:09 | -34.04673 | 151.20226 | 1875 ft | 165 kts | 333° |
| 2026-05-07 00:09 | -34.03602 | 151.19839 | 1615 ft | 157 kts | 340° |
| 2026-05-07 00:10 | -34.02549 | 151.19637 | 1304 ft | 151 kts | 342° |
| 2026-05-07 00:10 | -34.01525 | 151.19402 | 978 ft | 149 kts | 341° |
| 2026-05-07 00:10 | -34.00517 | 151.19141 | 792 ft | 147 kts | 340° |
| 2026-05-07 00:10 | -33.99500 | 151.18854 | 680 ft | 153 kts | 341° |
| 2026-05-07 00:11 | -33.98457 | 151.18602 | 530 ft | 153 kts | 342° |
| 2026-05-07 00:11 | -33.97444 | 151.18327 | 317 ft | 145 kts | 343° |
| 2026-05-07 00:11 | -33.96474 | 151.18076 | 91 ft | 139 kts | 346° |
| 2026-05-07 00:11 | -33.95590 | 151.17839 | 34 ft | 120 kts | 348° |
| 2026-05-07 00:12 | -33.94894 | 151.17667 | 34 ft | 84 kts | 348° |
| 2026-05-07 00:12 | -33.94441 | 151.17551 | 35 ft | 49 kts | 347° |
| 2026-05-07 00:12 | -33.94169 | 151.17478 | 34 ft | 38 kts | 348° |
| 2026-05-07 00:12 | -33.94013 | 151.17437 | 31 ft | 14 kts | 347° |
| 2026-05-07 00:13 | -33.93951 | 151.17406 | 31 ft | 9 kts | 310° |
| 2026-05-07 00:13 | -33.93946 | 151.17333 | 32 ft | 9 kts | 258° |
| 2026-05-07 00:13 | -33.93962 | 151.17260 | 33 ft | 9 kts | 255° |
| 2026-05-07 00:13 | -33.93979 | 151.17188 | 34 ft | 9 kts | 255° |
| 2026-05-07 00:14 | -33.93976 | 151.17130 | 34 ft | 7 kts | 297° |
| 2026-05-07 00:14 | -33.93936 | 151.17102 | 34 ft | 7 kts | 342° |
| 2026-05-07 00:14 | -33.93907 | 151.17076 | 35 ft | 5 kts | 296° |
| 2026-05-07 00:14 | -33.93912 | 151.17033 | 35 ft | 5 kts | 253° |
| 2026-05-07 00:15 | -33.93920 | 151.17000 | 35 ft | 1 kts | 253° |
| 2026-05-07 00:15 | -33.93923 | 151.16988 | 35 ft | 1 kts | 253° |
| 2026-05-07 00:15 | -33.93923 | 151.16986 | 35 ft | 0 kts | 253° |